Time;durP1;ratioP1;P1;durP2;ratioP2;P2;SDS_P1;SDS_P2;PMS_P1;PMS_P2;Temp;Humidity;BMP_temperature;BMP_pressure;BME280_temperature;BME280_humidity;BME280_pressure;Samples;Min_cycle;Max_cycle;Signal;HPM_P1;HPM_P2
2021/09/12 00:02:23;;;;;;;0.80;0.80;;;20.70;69.00;;;;;;5046897;28;20221;-73
2021/09/12 00:04:50;;;;;;;0.13;0.13;;;20.60;69.10;;;;;;5035702;28;20219;-73
2021/09/12 00:07:17;;;;;;;2.87;1.43;;;20.60;69.20;;;;;;5046149;28;20552;-73
2021/09/12 00:09:44;;;;;;;1.00;0.80;;;20.60;69.30;;;;;;5048655;28;20218;-73
2021/09/12 00:12:11;;;;;;;1.43;0.83;;;20.60;69.30;;;;;;5034172;28;20210;-73
2021/09/12 00:14:39;;;;;;;0.70;0.70;;;20.50;69.20;;;;;;5037530;28;20288;-73
2021/09/12 00:17:06;;;;;;;1.57;0.83;;;20.50;69.40;;;;;;5044350;28;20844;-73
2021/09/12 00:19:34;;;;;;;0.90;0.90;;;20.50;69.60;;;;;;5045233;28;20210;-73
2021/09/12 00:22:01;;;;;;;1.27;1.20;;;20.40;69.80;;;;;;5034577;28;20214;-73
2021/09/12 00:24:28;;;;;;;1.20;0.93;;;20.40;70.70;;;;;;5046622;28;20219;-73
2021/09/12 00:26:56;;;;;;;2.93;1.03;;;20.40;70.20;;;;;;5043311;28;20227;-73
2021/09/12 00:29:23;;;;;;;0.80;0.80;;;20.30;70.40;;;;;;5045940;28;20288;-73
2021/09/12 00:31:50;;;;;;;0.43;0.43;;;20.30;70.60;;;;;;5045434;28;20690;-74
2021/09/12 00:34:17;;;;;;;0.70;0.70;;;20.30;70.80;;;;;;5043992;28;20249;-74
2021/09/12 00:36:45;;;;;;;5.30;2.37;;;20.30;70.90;;;;;;5043130;28;20223;-73
2021/09/12 00:39:12;;;;;;;0.80;0.80;;;20.20;71.10;;;;;;5036863;28;20242;-73
2021/09/12 00:41:45;;;;;;;2.00;0.70;;;20.20;71.70;;;;;;5035216;28;20211;-73
2021/09/12 00:44:16;;;;;;;1.17;0.73;;;20.10;71.40;;;;;;5039113;28;20246;-73
2021/09/12 00:46:47;;;;;;;0.70;0.70;;;20.00;71.20;;;;;;5025147;28;20227;-73
2021/09/12 00:49:15;;;;;;;0.53;0.53;;;20.00;71.70;;;;;;5028345;28;20215;-74
2021/09/12 00:51:43;;;;;;;1.17;1.17;;;19.90;72.10;;;;;;5025964;28;20281;-74
2021/09/12 00:54:11;;;;;;;1.13;1.13;;;19.80;72.10;;;;;;5024420;28;20212;-74
2021/09/12 00:56:42;;;;;;;0.97;0.80;;;19.80;72.10;;;;;;5024258;28;20211;-74
2021/09/12 00:59:14;;;;;;;1.00;1.00;;;19.70;72.00;;;;;;5025694;28;20219;-74
2021/09/12 01:01:42;;;;;;;2.80;1.77;;;19.70;71.80;;;;;;5022933;28;20298;-73
2021/09/12 01:04:10;;;;;;;1.53;1.47;;;19.60;71.60;;;;;;5024897;28;20214;-73
2021/09/12 01:06:37;;;;;;;1.00;1.00;;;19.60;71.60;;;;;;5024729;28;20297;-73
2021/09/12 01:09:05;;;;;;;2.37;0.93;;;19.60;71.60;;;;;;5022810;28;20207;-73
2021/09/12 01:11:32;;;;;;;1.13;1.10;;;19.60;71.70;;;;;;5021572;28;20218;-73
2021/09/12 01:13:59;;;;;;;0.90;0.90;;;19.50;71.80;;;;;;5023801;28;20219;-73
2021/09/12 01:16:26;;;;;;;0.90;0.90;;;19.50;71.80;;;;;;5014156;28;20222;-73
2021/09/12 01:18:53;;;;;;;0.60;0.60;;;19.50;71.70;;;;;;5025245;28;20535;-74
2021/09/12 01:21:23;;;;;;;0.60;0.60;;;19.50;71.70;;;;;;5022323;28;20215;-74
2021/09/12 01:23:50;;;;;;;1.40;1.33;;;19.50;71.70;;;;;;5024667;28;20215;-74
2021/09/12 01:26:26;;;;;;;1.33;1.23;;;19.50;71.80;;;;;;5023776;28;20703;-74
2021/09/12 01:28:54;;;;;;;2.63;1.20;;;19.50;71.90;;;;;;5014197;28;20233;-74
2021/09/12 01:31:27;;;;;;;1.90;0.83;;;19.50;72.00;;;;;;5014023;28;20208;-73
2021/09/12 01:33:59;;;;;;;1.97;1.10;;;19.50;72.20;;;;;;5014297;28;20212;-73
2021/09/12 01:36:27;;;;;;;1.80;1.70;;;19.50;72.40;;;;;;5014075;28;20214;-73
2021/09/12 01:38:54;;;;;;;1.47;1.37;;;19.50;72.60;;;;;;5014390;28;20216;-73
2021/09/12 01:41:22;;;;;;;1.40;1.30;;;19.50;72.80;;;;;;5022572;28;20223;-73
2021/09/12 01:44:00;;;;;;;3.50;2.13;;;19.50;73.00;;;;;;5022087;28;20499;-73
2021/09/12 01:46:28;;;;;;;1.07;1.00;;;19.40;73.10;;;;;;5026592;28;20456;-73
2021/09/12 01:48:56;;;;;;;0.63;0.60;;;19.40;73.20;;;;;;5023105;28;20222;-73
2021/09/12 01:51:23;;;;;;;1.47;1.37;;;19.40;73.50;;;;;;5024672;28;20605;-73
2021/09/12 01:53:52;;;;;;;1.03;0.70;;;19.30;73.80;;;;;;5024979;28;20547;-73
2021/09/12 01:56:19;;;;;;;1.20;0.87;;;19.20;73.90;;;;;;5023049;28;20227;-73
2021/09/12 01:58:46;;;;;;;0.53;0.53;;;19.20;74.20;;;;;;5010204;28;20245;-73
2021/09/12 02:01:13;;;;;;;3.07;1.23;;;19.10;74.40;;;;;;5024554;28;20269;-73
2021/09/12 02:03:40;;;;;;;0.37;0.37;;;19.10;75.10;;;;;;5028586;28;20222;-74
2021/09/12 02:06:07;;;;;;;2.30;2.10;;;19.00;75.30;;;;;;5023939;28;20228;-74
2021/09/12 02:08:34;;;;;;;7.10;3.53;;;18.90;75.30;;;;;;5024611;28;20211;-74
2021/09/12 02:11:01;;;;;;;1.33;0.93;;;18.90;75.30;;;;;;5017397;28;20216;-74
2021/09/12 02:13:28;;;;;;;1.30;1.20;;;18.90;75.20;;;;;;5024866;28;20663;-74
2021/09/12 02:15:56;;;;;;;6.30;1.13;;;18.90;75.10;;;;;;5021569;28;20219;-74
2021/09/12 02:18:23;;;;;;;0.90;0.90;;;18.90;75.00;;;;;;5026385;28;20711;-74
2021/09/12 02:20:51;;;;;;;4.70;2.47;;;18.90;74.90;;;;;;5022006;28;20220;-74
2021/09/12 02:23:19;;;;;;;0.50;0.50;;;19.00;74.90;;;;;;5024638;28;20242;-74
2021/09/12 02:25:46;;;;;;;2.37;2.13;;;18.90;74.80;;;;;;5021499;28;20646;-74
2021/09/12 02:28:13;;;;;;;0.83;0.53;;;18.90;75.00;;;;;;5023160;28;20227;-74
2021/09/12 02:30:41;;;;;;;1.40;1.30;;;18.90;75.10;;;;;;5022933;28;20237;-74
2021/09/12 02:33:10;;;;;;;2.83;2.10;;;18.80;75.20;;;;;;5021485;28;20212;-74
2021/09/12 02:35:37;;;;;;;0.73;0.73;;;18.80;75.20;;;;;;5021938;28;20733;-74
2021/09/12 02:38:04;;;;;;;1.47;1.13;;;18.80;75.20;;;;;;5013807;28;20212;-74
2021/09/12 02:40:31;;;;;;;1.80;1.23;;;18.70;74.90;;;;;;5021521;28;20212;-74
2021/09/12 02:42:58;;;;;;;1.13;1.13;;;18.70;74.60;;;;;;5014612;28;20215;-74
2021/09/12 02:45:25;;;;;;;1.27;1.27;;;18.60;74.40;;;;;;5020438;28;20255;-73
2021/09/12 02:47:52;;;;;;;0.40;0.40;;;18.50;74.40;;;;;;5023346;28;20227;-73
2021/09/12 02:50:19;;;;;;;2.00;1.80;;;18.50;74.50;;;;;;5005164;28;20277;-73
2021/09/12 02:52:46;;;;;;;1.60;1.50;;;18.40;74.30;;;;;;5004494;28;20272;-73
2021/09/12 02:55:14;;;;;;;1.40;1.40;;;18.40;74.40;;;;;;5015242;28;20215;-73
2021/09/12 02:57:41;;;;;;;1.37;1.13;;;18.30;75.00;;;;;;5002954;28;20219;-73
2021/09/12 03:00:08;;;;;;;1.67;1.57;;;18.30;74.40;;;;;;5013228;28;20224;-74
2021/09/12 03:02:35;;;;;;;7.00;1.17;;;18.30;74.40;;;;;;5021715;28;20219;-74
2021/09/12 03:05:03;;;;;;;0.97;0.97;;;18.20;74.50;;;;;;5014984;28;20222;-74
2021/09/12 03:07:30;;;;;;;0.60;0.60;;;18.20;74.60;;;;;;5020371;28;20235;-74
2021/09/12 03:09:57;;;;;;;0.47;0.37;;;18.20;74.60;;;;;;5026326;28;20212;-74
2021/09/12 03:12:24;;;;;;;2.67;1.13;;;18.20;74.70;;;;;;5020425;28;20216;-74
2021/09/12 03:14:52;;;;;;;2.50;2.30;;;18.20;74.80;;;;;;5011999;28;20215;-74
2021/09/12 03:17:19;;;;;;;3.43;2.93;;;18.10;74.80;;;;;;5006321;28;20219;-74
2021/09/12 03:19:46;;;;;;;0.47;0.30;;;18.10;75.10;;;;;;5020974;28;20213;-74
2021/09/12 03:22:13;;;;;;;0.97;0.97;;;18.00;75.50;;;;;;5021960;28;20658;-74
2021/09/12 03:24:40;;;;;;;0.77;0.77;;;17.90;75.70;;;;;;5022388;28;20223;-74
2021/09/12 03:27:07;;;;;;;3.90;1.60;;;17.90;75.60;;;;;;5020253;28;20251;-74
2021/09/12 03:29:34;;;;;;;3.47;0.87;;;17.90;75.80;;;;;;5023592;28;20211;-74
2021/09/12 03:32:02;;;;;;;1.53;0.90;;;17.90;75.70;;;;;;5012062;28;20223;-74
2021/09/12 03:34:29;;;;;;;0.90;0.90;;;17.90;75.70;;;;;;5022013;28;20346;-74
2021/09/12 03:36:56;;;;;;;2.20;1.00;;;17.90;75.60;;;;;;5022440;28;20214;-74
2021/09/12 03:39:23;;;;;;;2.63;1.43;;;17.90;75.50;;;;;;5013809;28;20601;-74
2021/09/12 03:41:50;;;;;;;1.03;0.90;;;17.90;75.70;;;;;;5016550;28;20242;-74
2021/09/12 03:44:17;;;;;;;1.63;0.90;;;17.90;75.80;;;;;;5022026;28;20242;-74
2021/09/12 03:46:44;;;;;;;0.60;0.60;;;17.90;76.00;;;;;;5022169;28;20239;-74
2021/09/12 03:49:12;;;;;;;1.40;1.30;;;17.90;76.10;;;;;;5020984;28;20274;-74
2021/09/12 03:51:39;;;;;;;0.50;0.50;;;17.80;75.90;;;;;;5013584;28;20211;-74
2021/09/12 03:54:06;;;;;;;1.03;0.97;;;17.80;75.80;;;;;;5021254;28;20578;-74
2021/09/12 03:56:33;;;;;;;0.43;0.43;;;17.80;75.60;;;;;;5021715;28;20225;-74
2021/09/12 03:59:01;;;;;;;1.47;1.23;;;17.80;75.30;;;;;;5014067;28;20654;-74
2021/09/12 04:01:28;;;;;;;0.87;0.83;;;17.70;75.20;;;;;;5019947;28;20698;-74
2021/09/12 04:03:55;;;;;;;2.20;1.13;;;17.70;75.30;;;;;;5023072;28;20215;-74
2021/09/12 04:06:22;;;;;;;0.93;0.93;;;17.70;75.30;;;;;;5003641;28;20249;-74
2021/09/12 04:08:50;;;;;;;0.83;0.83;;;17.70;75.30;;;;;;5022804;28;20211;-74
2021/09/12 04:11:17;;;;;;;2.70;1.60;;;17.70;75.30;;;;;;5002086;28;20619;-74
2021/09/12 04:13:44;;;;;;;2.60;2.17;;;17.70;75.30;;;;;;5002956;28;20211;-74
2021/09/12 04:16:11;;;;;;;1.27;1.17;;;17.70;75.20;;;;;;5022141;28;20769;-74
2021/09/12 04:18:38;;;;;;;0.30;0.30;;;17.70;75.20;;;;;;5012976;28;20227;-74
2021/09/12 04:21:05;;;;;;;0.40;0.30;;;17.70;75.20;;;;;;5020408;28;20239;-74
2021/09/12 04:23:32;;;;;;;1.93;1.20;;;17.70;75.10;;;;;;5023077;28;20567;-74
2021/09/12 04:25:59;;;;;;;1.67;1.10;;;17.70;75.10;;;;;;5020078;28;20628;-74
2021/09/12 04:28:26;;;;;;;0.63;0.63;;;17.70;75.20;;;;;;5004799;28;20250;-74
2021/09/12 04:30:55;;;;;;;1.83;1.70;;;17.60;75.20;;;;;;5021465;28;20220;-74
2021/09/12 04:33:23;;;;;;;1.10;1.00;;;17.60;75.20;;;;;;5023255;28;20216;-74
2021/09/12 04:35:51;;;;;;;1.10;0.77;;;17.60;75.30;;;;;;5023744;28;20287;-74
2021/09/12 04:38:19;;;;;;;0.57;0.53;;;17.50;75.50;;;;;;5025731;28;20214;-74
2021/09/12 04:40:46;;;;;;;0.60;0.60;;;17.40;75.60;;;;;;5024502;28;20227;-74
2021/09/12 04:43:13;;;;;;;2.00;1.90;;;17.40;75.70;;;;;;5026162;28;20778;-74
2021/09/12 04:45:41;;;;;;;49.20;1.80;;;17.40;75.90;;;;;;5021222;28;20258;-74
2021/09/12 04:48:08;;;;;;;0.80;0.80;;;17.40;76.00;;;;;;5046019;28;20234;-74
2021/09/12 04:50:34;;;;;;;3.67;1.97;;;17.40;76.20;;;;;;5044162;28;20241;-74
2021/09/12 04:53:02;;;;;;;1.73;1.63;;;17.40;76.30;;;;;;5043887;28;20222;-74
2021/09/12 04:55:29;;;;;;;1.27;1.17;;;17.40;76.40;;;;;;5046463;28;20219;-74
2021/09/12 04:57:56;;;;;;;1.40;0.67;;;17.40;76.40;;;;;;5028629;28;20217;-74
2021/09/12 05:00:23;;;;;;;0.70;0.70;;;17.40;76.40;;;;;;5035229;28;20248;-74
2021/09/12 05:02:50;;;;;;;2.03;1.17;;;17.50;76.50;;;;;;5046363;28;20646;-73
2021/09/12 05:05:18;;;;;;;2.00;1.87;;;17.50;76.40;;;;;;5048860;28;20226;-73
2021/09/12 05:07:45;;;;;;;2.00;1.90;;;17.50;76.40;;;;;;5045921;28;20295;-73
2021/09/12 05:10:12;;;;;;;2.37;1.13;;;17.60;76.40;;;;;;5041273;28;20222;-73
2021/09/12 05:12:39;;;;;;;14.77;2.33;;;17.60;76.40;;;;;;5041771;28;20706;-73
2021/09/12 05:15:07;;;;;;;3.83;1.03;;;17.60;76.40;;;;;;5036654;28;20220;-73
2021/09/12 05:17:34;;;;;;;0.30;0.30;;;17.60;76.40;;;;;;5042196;28;20223;-73
2021/09/12 05:20:02;;;;;;;0.30;0.30;;;17.60;76.50;;;;;;5045473;28;20608;-73
2021/09/12 05:22:29;;;;;;;0.90;0.77;;;17.70;76.70;;;;;;5045383;28;20273;-73
2021/09/12 05:24:56;;;;;;;1.87;1.70;;;17.70;76.70;;;;;;5027279;28;20252;-73
2021/09/12 05:27:24;;;;;;;1.20;1.10;;;17.80;76.40;;;;;;5042435;28;20242;-73
2021/09/12 05:29:51;;;;;;;0.60;0.60;;;17.80;76.10;;;;;;5025237;28;20246;-74
2021/09/12 05:32:18;;;;;;;21.53;3.23;;;17.90;76.10;;;;;;5026877;28;20218;-73
2021/09/12 05:34:46;;;;;;;2.13;0.83;;;18.00;75.80;;;;;;5044026;28;20634;-73
2021/09/12 05:37:13;;;;;;;3.90;2.63;;;18.20;75.50;;;;;;5024884;28;20207;-74
2021/09/12 05:39:40;;;;;;;0.93;0.83;;;18.40;75.90;;;;;;5032025;28;20223;-73
2021/09/12 05:42:08;;;;;;;1.90;1.73;;;18.50;74.90;;;;;;5040644;28;20222;-73
2021/09/12 05:44:35;;;;;;;0.97;0.93;;;18.70;74.50;;;;;;5042501;28;20246;-73
2021/09/12 05:47:02;;;;;;;2.03;0.50;;;18.90;74.20;;;;;;5035050;28;20237;-73
2021/09/12 05:49:29;;;;;;;1.27;1.17;;;19.00;73.80;;;;;;5031450;28;20227;-73
2021/09/12 05:51:56;;;;;;;1.00;1.00;;;19.20;73.50;;;;;;5041840;28;20222;-73
2021/09/12 05:54:23;;;;;;;1.53;1.43;;;19.40;73.10;;;;;;5044427;28;20225;-73
2021/09/12 05:56:50;;;;;;;2.90;1.70;;;19.50;72.60;;;;;;5041108;28;20591;-74
2021/09/12 05:59:17;;;;;;;1.03;1.00;;;19.70;72.30;;;;;;5044762;28;20293;-74
2021/09/12 06:01:44;;;;;;;1.97;1.87;;;19.90;71.90;;;;;;5041304;28;20310;-74
2021/09/12 06:04:12;;;;;;;2.73;1.47;;;20.10;71.40;;;;;;5035011;28;20297;-74
2021/09/12 06:06:39;;;;;;;0.97;0.97;;;20.30;70.90;;;;;;5044553;28;20248;-74
2021/09/12 06:09:06;;;;;;;0.93;0.93;;;20.50;70.00;;;;;;5045274;28;20207;-74
2021/09/12 06:11:33;;;;;;;0.70;0.70;;;20.70;69.30;;;;;;5039921;28;20352;-74
2021/09/12 06:14:00;;;;;;;1.37;1.17;;;20.70;69.00;;;;;;5033390;28;20229;-74
2021/09/12 06:16:27;;;;;;;2.20;1.93;;;20.90;68.70;;;;;;5032632;28;20226;-74
2021/09/12 06:18:55;;;;;;;2.83;1.20;;;21.10;68.80;;;;;;5023586;28;20639;-75
2021/09/12 06:21:21;;;;;;;2.93;2.50;;;21.30;67.40;;;;;;5026649;28;20226;-74
2021/09/12 06:23:48;;;;;;;7.13;2.77;;;21.40;66.80;;;;;;5033384;28;20223;-74
2021/09/12 06:26:16;;;;;;;2.10;1.57;;;21.60;66.10;;;;;;5020496;28;20218;-74
2021/09/12 06:28:43;;;;;;;8.13;2.37;;;21.60;65.60;;;;;;5036822;28;20244;-74
2021/09/12 06:31:11;;;;;;;5.40;3.67;;;21.80;65.10;;;;;;5043083;28;20221;-75
2021/09/12 06:33:39;;;;;;;1.57;1.47;;;21.90;64.70;;;;;;5031784;28;20222;-74
2021/09/12 06:36:06;;;;;;;1.90;1.80;;;21.90;64.20;;;;;;5040050;28;20575;-74
2021/09/12 06:38:33;;;;;;;2.97;2.67;;;22.00;63.90;;;;;;5042403;28;20284;-75
2021/09/12 06:41:00;;;;;;;2.80;1.60;;;22.00;63.70;;;;;;5039033;28;20234;-74
2021/09/12 06:43:28;;;;;;;7.50;2.93;;;22.10;63.50;;;;;;5043625;28;20272;-74
2021/09/12 06:45:55;;;;;;;4.93;2.83;;;22.20;63.40;;;;;;5025331;28;20627;-74
2021/09/12 06:48:22;;;;;;;3.07;2.77;;;22.30;63.20;;;;;;5032293;28;20293;-74
2021/09/12 06:50:51;;;;;;;1.97;1.87;;;22.30;63.00;;;;;;5032031;28;20211;-74
2021/09/12 06:53:18;;;;;;;1.77;1.67;;;22.40;62.80;;;;;;5032595;28;20273;-74
2021/09/12 06:55:46;;;;;;;5.93;3.17;;;22.40;62.70;;;;;;5014553;28;20264;-74
2021/09/12 06:58:13;;;;;;;1.33;0.83;;;22.50;62.60;;;;;;5015245;28;20535;-74
2021/09/12 07:00:40;;;;;;;1.70;1.60;;;22.60;63.20;;;;;;5031958;28;20215;-74
2021/09/12 07:03:08;;;;;;;3.80;3.00;;;22.70;62.50;;;;;;5032162;28;20273;-74
2021/09/12 07:05:36;;;;;;;3.03;2.00;;;22.70;62.30;;;;;;5014616;28;20222;-74
2021/09/12 07:08:04;;;;;;;2.37;2.03;;;22.80;62.20;;;;;;5028366;28;20315;-74
2021/09/12 07:10:31;;;;;;;2.70;2.07;;;22.80;62.10;;;;;;5012569;28;20226;-74
2021/09/12 07:12:58;;;;;;;2.53;1.90;;;23.00;62.00;;;;;;5029452;28;20647;-74
2021/09/12 07:15:25;;;;;;;3.23;2.93;;;23.00;61.80;;;;;;5032005;28;20222;-74
2021/09/12 07:17:52;;;;;;;1.50;1.40;;;23.10;61.60;;;;;;5026754;28;20215;-74
2021/09/12 07:20:19;;;;;;;4.60;2.70;;;23.20;61.50;;;;;;5027937;28;20219;-75
2021/09/12 07:22:51;;;;;;;1.50;1.40;;;23.30;61.30;;;;;;5031845;28;20215;-74
2021/09/12 07:25:19;;;;;;;2.13;2.03;;;23.40;61.20;;;;;;5014684;28;20211;-74
2021/09/12 07:27:46;;;;;;;1.87;1.73;;;23.50;60.80;;;;;;5027212;28;20281;-74
2021/09/12 07:30:14;;;;;;;2.07;1.90;;;23.60;60.70;;;;;;5031724;28;20446;-74
2021/09/12 07:32:41;;;;;;;2.87;2.47;;;23.80;60.40;;;;;;5014284;28;20323;-74
2021/09/12 07:35:09;;;;;;;2.60;2.33;;;24.00;60.10;;;;;;5014800;28;20222;-74
2021/09/12 07:37:37;;;;;;;5.30;3.30;;;24.20;59.70;;;;;;5010832;28;20284;-74
2021/09/12 07:40:05;;;;;;;3.70;1.70;;;24.40;58.50;;;;;;5010797;28;20219;-75
2021/09/12 07:42:32;;;;;;;1.17;1.17;;;24.50;58.10;;;;;;5031494;28;20215;-76
2021/09/12 07:44:59;;;;;;;9.00;3.90;;;24.60;58.00;;;;;;5014550;28;20300;-74
2021/09/12 07:47:26;;;;;;;4.70;4.17;;;24.80;57.60;;;;;;5031240;28;20242;-76
2021/09/12 07:49:53;;;;;;;3.67;3.10;;;25.00;56.50;;;;;;5014565;28;20218;-73
2021/09/12 07:52:20;;;;;;;3.60;2.93;;;25.10;56.20;;;;;;5014359;28;20218;-74
2021/09/12 07:54:47;;;;;;;5.73;3.00;;;25.20;55.60;;;;;;5031880;28;20708;-74
2021/09/12 07:57:15;;;;;;;2.80;2.10;;;25.40;55.70;;;;;;5010654;28;20208;-74
2021/09/12 07:59:42;;;;;;;4.50;3.97;;;25.60;55.50;;;;;;5028335;28;20215;-72
2021/09/12 08:02:09;;;;;;;2.77;2.57;;;25.80;54.90;;;;;;5015329;28;20223;-74
2021/09/12 08:04:36;;;;;;;1.87;1.70;;;25.90;54.30;;;;;;5031344;28;20231;-75
2021/09/12 08:07:03;;;;;;;4.70;3.20;;;26.10;54.10;;;;;;5032458;28;20207;-75
2021/09/12 08:09:30;;;;;;;5.00;3.33;;;26.40;53.80;;;;;;5033382;28;20864;-75
2021/09/12 08:11:58;;;;;;;5.43;3.47;;;26.60;52.90;;;;;;5028580;28;20212;-75
2021/09/12 08:14:24;;;;;;;3.60;3.30;;;26.80;52.80;;;;;;5035138;28;20585;-75
2021/09/12 08:16:53;;;;;;;4.30;3.80;;;27.00;52.10;;;;;;5034843;28;20223;-75
2021/09/12 08:19:20;;;;;;;1.47;1.37;;;27.20;51.30;;;;;;5035297;28;20277;-75
2021/09/12 08:21:47;;;;;;;1.33;1.23;;;27.30;51.50;;;;;;5035133;28;20587;-75
2021/09/12 08:24:14;;;;;;;3.97;2.07;;;27.50;51.10;;;;;;5035076;28;20698;-74
2021/09/12 08:26:41;;;;;;;2.60;2.20;;;27.70;50.00;;;;;;5034981;28;20231;-74
2021/09/12 08:29:09;;;;;;;3.53;3.23;;;27.70;50.10;;;;;;5031254;28;20554;-75
2021/09/12 08:31:36;;;;;;;4.27;3.60;;;27.80;49.60;;;;;;5017558;28;20670;-75
2021/09/12 08:34:05;;;;;;;6.83;3.73;;;27.90;49.00;;;;;;5034525;28;20219;-75
2021/09/12 08:36:32;;;;;;;2.63;0.83;;;28.00;49.40;;;;;;5017741;28;20214;-76
2021/09/12 08:38:59;;;;;;;2.63;2.43;;;28.10;49.00;;;;;;5035175;28;20229;-73
2021/09/12 08:41:26;;;;;;;2.60;2.17;;;28.20;47.60;;;;;;5030699;28;20233;-73
2021/09/12 08:43:54;;;;;;;2.13;1.93;;;28.30;47.80;;;;;;5033943;28;20207;-74
2021/09/12 08:46:22;;;;;;;2.10;1.57;;;28.50;46.80;;;;;;5015463;28;20207;-75
2021/09/12 08:48:49;;;;;;;9.83;1.57;;;28.60;46.80;;;;;;5025383;28;20237;-75
2021/09/12 08:51:16;;;;;;;2.03;1.90;;;28.80;46.60;;;;;;5014094;28;20216;-73
2021/09/12 08:53:44;;;;;;;1.33;0.93;;;28.90;45.70;;;;;;5019556;28;20222;-74
2021/09/12 08:56:11;;;;;;;1.67;1.57;;;28.90;45.20;;;;;;5024624;28;20211;-73
2021/09/12 08:58:38;;;;;;;1.17;1.17;;;29.10;45.10;;;;;;5021831;28;20221;-76
2021/09/12 09:01:05;;;;;;;1.60;1.50;;;29.30;45.10;;;;;;5005127;28;20219;-76
2021/09/12 09:03:37;;;;;;;1.13;1.13;;;29.40;44.80;;;;;;5016928;28;20293;-74
2021/09/12 09:06:17;;;;;;;2.33;1.97;;;29.60;45.40;;;;;;5006876;28;20278;-74
2021/09/12 09:08:59;;;;;;;7.73;1.93;;;29.80;44.30;;;;;;5010455;28;20223;-75
2021/09/12 09:11:38;;;;;;;0.67;0.67;;;29.80;43.70;;;;;;5013012;28;20215;-74
2021/09/12 09:14:12;;;;;;;0.50;0.50;;;29.90;43.90;;;;;;5024638;28;20215;-73
2021/09/12 09:16:39;;;;;;;1.53;1.43;;;30.10;44.10;;;;;;5013498;28;20208;-74
2021/09/12 09:19:08;;;;;;;2.93;2.13;;;30.20;43.90;;;;;;5025294;28;20362;-75
2021/09/12 09:21:46;;;;;;;1.37;1.30;;;30.50;44.00;;;;;;5021020;28;20212;-74
2021/09/12 09:24:27;;;;;;;0.67;0.67;;;30.50;43.10;;;;;;5022596;28;20659;-75
2021/09/12 09:27:03;;;;;;;2.10;0.97;;;30.50;43.50;;;;;;5022673;28;20222;-75
2021/09/12 09:29:36;;;;;;;1.47;1.00;;;30.60;43.60;;;;;;5023370;28;20262;-75
2021/09/12 09:32:04;;;;;;;1.40;1.30;;;30.60;43.50;;;;;;5023223;28;20261;-74
2021/09/12 09:34:32;;;;;;;1.37;1.30;;;30.60;43.10;;;;;;5027184;28;20560;-74
2021/09/12 09:37:15;;;;;;;1.10;1.00;;;30.60;42.80;;;;;;5028111;28;20218;-74
2021/09/12 09:39:50;;;;;;;0.50;0.50;;;30.60;42.40;;;;;;5022463;28;20224;-74
2021/09/12 09:42:37;;;;;;;0.80;0.80;;;30.60;42.70;;;;;;5023928;28;20211;-73
2021/09/12 09:45:08;;;;;;;2.47;1.53;;;30.70;42.80;;;;;;5023525;28;20493;-75
2021/09/12 09:47:37;;;;;;;0.70;0.57;;;30.80;42.50;;;;;;5022004;28;20658;-74
2021/09/12 09:50:12;;;;;;;0.47;0.47;;;30.80;42.20;;;;;;5016826;28;20211;-75
2021/09/12 09:52:47;;;;;;;0.80;0.80;;;30.80;41.70;;;;;;5023886;28;20222;-75
2021/09/12 09:55:17;;;;;;;2.13;1.73;;;30.80;41.70;;;;;;5005349;28;20211;-75
2021/09/12 09:57:49;;;;;;;1.03;1.03;;;30.80;42.50;;;;;;5024434;28;20583;-75
2021/09/12 10:00:18;;;;;;;5.67;1.80;;;31.00;41.40;;;;;;5024813;28;20215;-75
2021/09/12 10:02:45;;;;;;;0.63;0.63;;;31.30;41.30;;;;;;5006437;28;20562;-75
2021/09/12 10:05:20;;;;;;;0.50;0.50;;;31.40;41.00;;;;;;5022162;28;20226;-75
2021/09/12 10:07:46;;;;;;;1.23;1.20;;;31.50;40.60;;;;;;5004893;28;20307;-75
2021/09/12 10:10:15;;;;;;;0.67;0.67;;;31.50;40.40;;;;;;5015436;28;20548;-75
2021/09/12 10:12:59;;;;;;;1.13;1.13;;;31.60;40.40;;;;;;5006852;28;20211;-75
2021/09/12 10:15:32;;;;;;;0.77;0.63;;;31.70;39.50;;;;;;5019606;28;20212;-75
2021/09/12 10:18:00;;;;;;;0.90;0.90;;;31.70;38.70;;;;;;5023311;28;20298;-75
2021/09/12 10:20:30;;;;;;;1.03;1.03;;;31.60;39.00;;;;;;5007387;28;20206;-75
2021/09/12 10:23:02;;;;;;;0.43;0.43;;;31.70;39.10;;;;;;5013345;28;20663;-75
2021/09/12 10:25:41;;;;;;;0.70;0.70;;;31.70;38.10;;;;;;5018728;28;20210;-75
2021/09/12 10:28:09;;;;;;;2.10;1.50;;;31.70;38.50;;;;;;5020881;28;20239;-75
2021/09/12 10:30:42;;;;;;;0.80;0.80;;;31.70;38.30;;;;;;5021324;28;20298;-75
2021/09/12 10:33:12;;;;;;;1.20;1.20;;;31.70;37.90;;;;;;5002747;28;20223;-75
2021/09/12 10:35:49;;;;;;;0.67;0.67;;;31.70;38.40;;;;;;5020699;28;20242;-75
2021/09/12 10:38:27;;;;;;;0.70;0.70;;;31.80;37.70;;;;;;5021948;28;20222;-74
2021/09/12 10:40:55;;;;;;;0.40;0.40;;;31.70;36.80;;;;;;5006206;28;20560;-74
2021/09/12 10:43:25;;;;;;;2.07;1.00;;;31.80;37.10;;;;;;5019927;28;20223;-74
2021/09/12 10:46:01;;;;;;;0.50;0.50;;;31.90;37.50;;;;;;5022845;28;20239;-75
2021/09/12 10:48:30;;;;;;;1.17;1.17;;;32.00;35.90;;;;;;5022470;28;20337;-75
2021/09/12 10:51:21;;;;;;;1.70;0.60;;;32.00;35.70;;;;;;5021843;28;20216;-76
2021/09/12 10:54:00;;;;;;;0.70;0.70;;;32.00;35.80;;;;;;5014831;28;20239;-75
2021/09/12 10:56:31;;;;;;;1.87;0.90;;;32.00;35.70;;;;;;5021338;28;20207;-75
2021/09/12 10:59:10;;;;;;;0.77;0.77;;;32.00;35.40;;;;;;5000641;28;20211;-75
2021/09/12 11:01:52;;;;;;;1.70;1.60;;;31.90;35.60;;;;;;5021864;28;20230;-75
2021/09/12 11:04:31;;;;;;;1.57;1.47;;;32.10;36.00;;;;;;5020721;28;20609;-75
2021/09/12 11:07:04;;;;;;;0.77;0.77;;;32.20;34.90;;;;;;5021772;28;20211;-75
2021/09/12 11:09:33;;;;;;;1.17;1.07;;;32.20;34.90;;;;;;5023893;28;20223;-75
2021/09/12 11:12:02;;;;;;;0.97;0.90;;;32.30;35.10;;;;;;5019801;28;20266;-75
2021/09/12 11:14:30;;;;;;;0.60;0.50;;;32.30;35.00;;;;;;5023675;28;20211;-75
2021/09/12 11:17:23;;;;;;;1.03;0.60;;;32.40;34.70;;;;;;5020516;28;20215;-75
2021/09/12 11:19:52;;;;;;;1.80;0.63;;;32.40;34.10;;;;;;5006977;28;20624;-75
2021/09/12 11:22:19;;;;;;;0.83;0.83;;;32.30;33.90;;;;;;5004784;28;20319;-75
2021/09/12 11:24:46;;;;;;;2.83;0.57;;;32.30;34.30;;;;;;5021985;28;20298;-75
2021/09/12 11:27:13;;;;;;;2.30;0.87;;;32.30;34.50;;;;;;5010137;28;20218;-75
2021/09/12 11:29:40;;;;;;;1.87;1.77;;;32.30;34.50;;;;;;5008172;28;20234;-75
2021/09/12 11:32:11;;;;;;;0.83;0.83;;;32.20;34.40;;;;;;5006263;28;20218;-76
2021/09/12 11:34:41;;;;;;;0.47;0.47;;;32.20;35.20;;;;;;5006244;28;20219;-74
2021/09/12 11:37:14;;;;;;;1.27;1.17;;;32.20;35.30;;;;;;5005850;28;20288;-76
2021/09/12 11:39:55;;;;;;;0.40;0.40;;;32.20;35.40;;;;;;5025627;28;20230;-75
2021/09/12 11:42:23;;;;;;;5.23;1.67;;;32.30;34.90;;;;;;5023629;28;20223;-75
2021/09/12 11:44:52;;;;;;;1.33;1.23;;;32.30;35.80;;;;;;5026365;28;20675;-75
2021/09/12 11:47:22;;;;;;;0.83;0.63;;;32.30;35.00;;;;;;5024997;28;20632;-75
2021/09/12 11:50:00;;;;;;;0.30;0.30;;;32.40;35.10;;;;;;5010646;28;20235;-75
2021/09/12 11:52:32;;;;;;;0.87;0.87;;;32.50;34.20;;;;;;5016165;28;20223;-75
2021/09/12 11:54:59;;;;;;;1.27;0.57;;;32.40;34.50;;;;;;5007315;28;20599;-75
2021/09/12 11:57:26;;;;;;;0.83;0.83;;;32.30;34.70;;;;;;5026130;28;20218;-75
2021/09/12 11:59:55;;;;;;;0.90;0.90;;;32.40;34.70;;;;;;5025512;28;20270;-75
2021/09/12 12:02:24;;;;;;;0.60;0.60;;;32.40;34.50;;;;;;5024348;28;20216;-75
2021/09/12 12:04:54;;;;;;;0.70;0.70;;;32.50;34.10;;;;;;5027503;28;20566;-75
2021/09/12 12:07:35;;;;;;;1.43;1.33;;;32.60;34.30;;;;;;5024901;28;20220;-75
2021/09/12 12:10:04;;;;;;;0.50;0.50;;;32.60;34.30;;;;;;5025185;28;20671;-74
2021/09/12 12:12:39;;;;;;;9.23;1.80;;;32.70;34.40;;;;;;5007590;28;20627;-75
2021/09/12 12:15:07;;;;;;;1.33;0.93;;;32.80;34.40;;;;;;5027627;28;20206;-75
2021/09/12 12:17:34;;;;;;;0.80;0.80;;;32.90;34.60;;;;;;5025827;28;20330;-75
2021/09/12 12:20:02;;;;;;;0.50;0.50;;;32.90;34.10;;;;;;5026926;28;20293;-74
2021/09/12 12:22:37;;;;;;;0.40;0.40;;;33.00;34.20;;;;;;5022048;28;20223;-75
2021/09/12 12:25:06;;;;;;;1.60;0.97;;;33.00;34.40;;;;;;5006381;28;20227;-75
2021/09/12 12:27:41;;;;;;;0.83;0.77;;;33.10;34.50;;;;;;5008487;28;20297;-74
2021/09/12 12:30:09;;;;;;;2.03;1.83;;;33.10;34.40;;;;;;5026685;28;20239;-74
2021/09/12 12:32:37;;;;;;;1.67;0.70;;;33.20;34.60;;;;;;5023732;28;20228;-75
2021/09/12 12:35:19;;;;;;;0.53;0.53;;;33.20;34.50;;;;;;5024529;28;20923;-75
2021/09/12 12:37:47;;;;;;;0.73;0.50;;;33.20;34.50;;;;;;5023544;28;20207;-75
2021/09/12 12:40:23;;;;;;;0.53;0.53;;;33.20;34.00;;;;;;5008992;28;20270;-75
2021/09/12 12:43:03;;;;;;;1.93;0.63;;;33.00;34.30;;;;;;5029943;28;20649;-75
2021/09/12 12:45:35;;;;;;;2.33;1.07;;;32.90;34.80;;;;;;5008200;28;20250;-74
2021/09/12 12:48:02;;;;;;;1.30;1.20;;;32.90;34.90;;;;;;5023813;28;20305;-75
2021/09/12 12:50:33;;;;;;;0.50;0.50;;;32.80;34.70;;;;;;5026023;28;20818;-75
2021/09/12 12:55:57;;;;;;;2.57;1.03;;;32.70;34.70;;;;;;5029724;28;20206;-75
2021/09/12 12:58:25;;;;;;;0.10;0.10;;;32.60;34.80;;;;;;5025965;28;20207;-75